Time;durP1;ratioP1;P1;durP2;ratioP2;P2;SDS_P1;SDS_P2;PMS_P1;PMS_P2;Temp;Humidity;BMP_temperature;BMP_pressure;BME280_temperature;BME280_humidity;BME280_pressure;Samples;Min_cycle;Max_cycle;Signal;HPM_P1;HPM_P2
2021/03/10 00:01:48;;;;;;;;;16.00;14.67;;;;;;;;5048218;27;114019;-68
2021/03/10 00:04:14;;;;;;;;;13.00;12.00;;;;;;;;5048445;27;114112;-68
2021/03/10 00:06:40;;;;;;;;;15.33;10.67;;;;;;;;5047011;27;112030;-68
2021/03/10 00:09:06;;;;;;;;;12.00;10.67;;;;;;;;5057659;27;113574;-68
2021/03/10 00:11:32;;;;;;;;;14.67;14.67;;;;;;;;5046713;27;111982;-68
2021/03/10 00:13:58;;;;;;;;;14.00;9.33;;;;;;;;5049447;27;113782;-69
2021/03/10 00:16:24;;;;;;;;;17.00;12.33;;;;;;;;5046585;27;113961;-68
2021/03/10 00:18:50;;;;;;;;;12.33;12.33;;;;;;;;5048045;27;111853;-69
2021/03/10 00:21:16;;;;;;;;;14.67;12.33;;;;;;;;5048749;27;113480;-68
2021/03/10 00:23:43;;;;;;;;;13.00;12.67;;;;;;;;5046155;27;113424;-69
2021/03/10 00:26:09;;;;;;;;;13.00;13.00;;;;;;;;5048920;27;112192;-68
2021/03/10 00:28:35;;;;;;;;;12.00;9.33;;;;;;;;5045931;27;113410;-68
2021/03/10 00:31:01;;;;;;;;;11.67;9.33;;;;;;;;5052895;27;113926;-68
2021/03/10 00:33:27;;;;;;;;;13.67;10.00;;;;;;;;5050046;27;113622;-68
2021/03/10 00:35:53;;;;;;;;;11.33;11.33;;;;;;;;5046461;27;114491;-67
2021/03/10 00:38:19;;;;;;;;;9.67;9.67;;;;;;;;5047516;27;112208;-68
2021/03/10 00:40:46;;;;;;;;;8.67;7.33;;;;;;;;5048101;27;113454;-68
2021/03/10 00:43:12;;;;;;;;;13.00;12.00;;;;;;;;5046394;27;114624;-69
2021/03/10 00:45:38;;;;;;;;;14.00;12.00;;;;;;;;5049334;27;112354;-68
2021/03/10 00:48:04;;;;;;;;;10.33;9.00;;;;;;;;5045528;27;114052;-68
2021/03/10 00:50:30;;;;;;;;;15.33;13.00;;;;;;;;5052437;27;114029;-68
2021/03/10 00:52:56;;;;;;;;;6.00;6.00;;;;;;;;5042585;27;112416;-67
2021/03/10 00:55:22;;;;;;;;;8.67;8.67;;;;;;;;5045847;27;114116;-67
2021/03/10 00:57:49;;;;;;;;;14.00;12.33;;;;;;;;5047815;27;111938;-68
2021/03/10 01:00:16;;;;;;;;;12.33;9.00;;;;;;;;5047753;27;114066;-68
2021/03/10 01:02:42;;;;;;;;;15.00;10.33;;;;;;;;5046542;27;114219;-68
2021/03/10 01:05:08;;;;;;;;;15.00;12.67;;;;;;;;5048244;27;112705;-68
2021/03/10 01:07:34;;;;;;;;;9.00;9.00;;;;;;;;5038376;27;112743;-67
2021/03/10 01:10:00;;;;;;;;;16.33;12.33;;;;;;;;5048700;27;114481;-67
2021/03/10 01:12:26;;;;;;;;;10.00;9.00;;;;;;;;5053106;27;112967;-69
2021/03/10 01:14:53;;;;;;;;;11.00;8.33;;;;;;;;5045375;27;113941;-68
2021/03/10 01:17:19;;;;;;;;;17.67;10.33;;;;;;;;5040155;27;112997;-68
2021/03/10 01:19:45;;;;;;;;;14.33;10.67;;;;;;;;5048000;27;113630;-68
2021/03/10 01:22:11;;;;;;;;;12.67;12.00;;;;;;;;5048365;27;113518;-68
2021/03/10 01:24:37;;;;;;;;;14.00;12.00;;;;;;;;5041766;27;112116;-69
2021/03/10 01:27:03;;;;;;;;;12.00;12.00;;;;;;;;5041402;27;112337;-69
2021/03/10 01:29:29;;;;;;;;;12.00;12.00;;;;;;;;5044443;27;114357;-69
2021/03/10 01:31:56;;;;;;;;;13.00;12.00;;;;;;;;5049292;27;111972;-68
2021/03/10 01:34:22;;;;;;;;;13.33;10.67;;;;;;;;5048292;27;113738;-69
2021/03/10 01:36:48;;;;;;;;;11.33;10.33;;;;;;;;5049100;27;112389;-69
2021/03/10 01:39:14;;;;;;;;;12.00;10.33;;;;;;;;5044246;27;112938;-68
2021/03/10 01:41:40;;;;;;;;;18.00;13.00;;;;;;;;5035408;27;112875;-68
2021/03/10 01:44:06;;;;;;;;;15.00;13.00;;;;;;;;5049126;27;113093;-69
2021/03/10 01:46:33;;;;;;;;;14.67;13.67;;;;;;;;5048667;27;113765;-69
2021/03/10 01:49:00;;;;;;;;;14.33;12.00;;;;;;;;5045015;27;113563;-67
2021/03/10 01:51:26;;;;;;;;;10.00;9.00;;;;;;;;5044299;27;111968;-68
2021/03/10 01:53:52;;;;;;;;;9.00;9.00;;;;;;;;5045056;27;113413;-69
2021/03/10 01:56:19;;;;;;;;;15.00;11.33;;;;;;;;5050041;27;114016;-68
2021/03/10 01:58:45;;;;;;;;;11.67;10.33;;;;;;;;5044932;27;114377;-67
2021/03/10 02:01:11;;;;;;;;;12.00;10.33;;;;;;;;5046111;27;114176;-69
2021/03/10 02:03:37;;;;;;;;;16.67;11.67;;;;;;;;5045467;27;111985;-68
2021/03/10 02:06:04;;;;;;;;;13.33;11.67;;;;;;;;5047817;27;114129;-69
2021/03/10 02:08:37;;;;;;;;;13.00;10.33;;;;;;;;5043926;27;114568;-68
2021/03/10 02:11:08;;;;;;;;;11.67;11.00;;;;;;;;5044731;27;111971;-68
2021/03/10 02:13:38;;;;;;;;;12.00;11.00;;;;;;;;5044382;27;113227;-67
2021/03/10 02:16:06;;;;;;;;;12.67;9.00;;;;;;;;5047603;27;114489;-68
2021/03/10 02:18:36;;;;;;;;;11.33;10.33;;;;;;;;5048111;27;112135;-69
2021/03/10 02:21:02;;;;;;;;;15.33;11.33;;;;;;;;5047110;27;113606;-68
2021/03/10 02:23:59;;;;;;;;;15.33;12.00;;;;;;;;5044414;27;111959;-68
2021/03/10 02:26:41;;;;;;;;;11.00;9.67;;;;;;;;5047869;27;113701;-68
2021/03/10 02:29:09;;;;;;;;;9.00;9.00;;;;;;;;5044591;27;114667;-68
2021/03/10 02:31:36;;;;;;;;;15.00;12.33;;;;;;;;5047730;27;112715;-72
2021/03/10 02:34:04;;;;;;;;;14.33;9.00;;;;;;;;5044510;27;114132;-68
2021/03/10 02:36:30;;;;;;;;;15.00;13.00;;;;;;;;5047208;27;114180;-68
2021/03/10 02:38:59;;;;;;;;;11.67;11.00;;;;;;;;5043957;27;112180;-69
2021/03/10 02:41:27;;;;;;;;;11.00;11.00;;;;;;;;5050933;27;114150;-69
2021/03/10 02:43:54;;;;;;;;;11.00;10.33;;;;;;;;5044834;27;111895;-68
2021/03/10 02:46:22;;;;;;;;;13.00;12.00;;;;;;;;5042353;27;113114;-69
2021/03/10 02:48:48;;;;;;;;;16.33;12.00;;;;;;;;5049884;27;114283;-68
2021/03/10 02:51:15;;;;;;;;;15.00;11.67;;;;;;;;5049416;27;112008;-68
2021/03/10 02:53:41;;;;;;;;;15.00;11.00;;;;;;;;5049046;27;113604;-69
2021/03/10 02:56:09;;;;;;;;;13.00;10.33;;;;;;;;5050178;27;114172;-69
2021/03/10 02:58:35;;;;;;;;;14.00;11.33;;;;;;;;5048566;27;111981;-68
2021/03/10 03:01:01;;;;;;;;;12.33;12.00;;;;;;;;5057430;27;113604;-69
2021/03/10 03:03:28;;;;;;;;;18.33;12.33;;;;;;;;5054580;27;112726;-70
2021/03/10 03:05:54;;;;;;;;;10.00;9.67;;;;;;;;5050415;27;113771;-69
2021/03/10 03:08:20;;;;;;;;;15.33;13.00;;;;;;;;5045572;27;112879;-69
2021/03/10 03:10:46;;;;;;;;;16.00;12.00;;;;;;;;5049325;27;112153;-69
2021/03/10 03:13:13;;;;;;;;;11.00;9.00;;;;;;;;5046327;27;113567;-70
2021/03/10 03:15:40;;;;;;;;;12.67;12.00;;;;;;;;5047514;27;114106;-70
2021/03/10 03:18:06;;;;;;;;;15.33;12.00;;;;;;;;5050077;27;113191;-70
2021/03/10 03:20:33;;;;;;;;;14.33;11.33;;;;;;;;5046128;27;113361;-71
2021/03/10 03:22:59;;;;;;;;;16.33;12.33;;;;;;;;5052637;27;114797;-70
2021/03/10 03:25:26;;;;;;;;;16.33;13.67;;;;;;;;5054607;27;115715;-69
2021/03/10 03:27:54;;;;;;;;;12.67;11.67;;;;;;;;5047619;27;114894;-70
2021/03/10 03:30:20;;;;;;;;;13.33;12.00;;;;;;;;5049711;27;111957;-70
2021/03/10 03:32:47;;;;;;;;;16.00;15.00;;;;;;;;5044852;27;112384;-70
2021/03/10 03:35:15;;;;;;;;;12.00;12.00;;;;;;;;5047860;27;114659;-70
2021/03/10 03:37:44;;;;;;;;;15.00;11.67;;;;;;;;5048778;27;111994;-70
2021/03/10 03:40:10;;;;;;;;;14.33;12.67;;;;;;;;5048368;27;114136;-70
2021/03/10 03:42:36;;;;;;;;;13.00;13.00;;;;;;;;5049167;27;114120;-71
2021/03/10 03:45:03;;;;;;;;;15.33;15.33;;;;;;;;5052024;27;112305;-70
2021/03/10 03:47:29;;;;;;;;;15.67;12.67;;;;;;;;5049747;27;115201;-71
2021/03/10 03:49:55;;;;;;;;;15.00;13.00;;;;;;;;5046939;27;112396;-70
2021/03/10 03:52:21;;;;;;;;;16.00;14.33;;;;;;;;5049376;27;112750;-69
2021/03/10 03:54:48;;;;;;;;;13.00;11.67;;;;;;;;5047873;27;114065;-71
2021/03/10 03:57:14;;;;;;;;;16.00;13.33;;;;;;;;5048423;27;112829;-71
2021/03/10 03:59:40;;;;;;;;;18.33;16.67;;;;;;;;5049302;27;113721;-71
2021/03/10 04:02:06;;;;;;;;;16.00;12.33;;;;;;;;5047058;27;114489;-70
2021/03/10 04:04:32;;;;;;;;;17.33;15.33;;;;;;;;5043057;27;112226;-70
2021/03/10 04:07:00;;;;;;;;;18.00;14.33;;;;;;;;5050244;27;113368;-70
2021/03/10 04:09:26;;;;;;;;;13.33;12.00;;;;;;;;5046635;27;111804;-70
2021/03/10 04:11:53;;;;;;;;;16.00;15.00;;;;;;;;5050266;27;113336;-69
2021/03/10 04:14:20;;;;;;;;;13.33;13.33;;;;;;;;5046349;27;115758;-70
2021/03/10 04:16:46;;;;;;;;;18.00;17.33;;;;;;;;5048974;27;113399;-70
2021/03/10 04:19:12;;;;;;;;;18.00;15.67;;;;;;;;5048115;27;113335;-70
2021/03/10 04:21:39;;;;;;;;;18.33;16.00;;;;;;;;5047610;27;114143;-69
2021/03/10 04:24:05;;;;;;;;;12.67;9.00;;;;;;;;5042631;27;113279;-70
2021/03/10 04:26:31;;;;;;;;;9.67;9.00;;;;;;;;5049981;27;113774;-69
2021/03/10 04:28:58;;;;;;;;;15.33;15.00;;;;;;;;5049903;27;114119;-69
2021/03/10 04:31:24;;;;;;;;;14.67;14.67;;;;;;;;5053509;27;113637;-70
2021/03/10 04:33:50;;;;;;;;;21.33;15.00;;;;;;;;5049183;27;113826;-71
2021/03/10 04:36:16;;;;;;;;;19.67;15.67;;;;;;;;5047550;27;111905;-69
2021/03/10 04:38:43;;;;;;;;;16.33;14.33;;;;;;;;5048127;27;114760;-69
2021/03/10 04:41:09;;;;;;;;;20.00;12.67;;;;;;;;5047408;27;114628;-69
2021/03/10 04:43:35;;;;;;;;;18.00;14.00;;;;;;;;5046548;27;112021;-70
2021/03/10 04:46:02;;;;;;;;;17.33;15.67;;;;;;;;5050212;27;113405;-70
2021/03/10 04:48:27;;;;;;;;;20.33;15.67;;;;;;;;5045452;27;114505;-71
2021/03/10 04:50:53;;;;;;;;;17.33;15.33;;;;;;;;5053327;27;112053;-70
2021/03/10 04:53:19;;;;;;;;;20.67;16.67;;;;;;;;5045476;27;113912;-69
2021/03/10 04:55:45;;;;;;;;;19.00;16.00;;;;;;;;5048353;27;111892;-70
2021/03/10 04:58:11;;;;;;;;;19.00;15.00;;;;;;;;5047635;27;113507;-70
2021/03/10 05:00:37;;;;;;;;;15.00;14.33;;;;;;;;5046448;27;113945;-68
2021/03/10 05:03:04;;;;;;;;;16.00;16.00;;;;;;;;5048843;27;111980;-70
2021/03/10 05:05:30;;;;;;;;;18.67;18.00;;;;;;;;5046119;27;114124;-69
2021/03/10 05:07:56;;;;;;;;;18.33;12.00;;;;;;;;5047655;27;114047;-69
2021/03/10 05:10:22;;;;;;;;;24.00;17.33;;;;;;;;5049761;27;112584;-70
2021/03/10 05:12:48;;;;;;;;;15.00;15.00;;;;;;;;5047500;27;114142;-69
2021/03/10 05:15:15;;;;;;;;;24.00;17.00;;;;;;;;5046417;27;112059;-70
2021/03/10 05:17:41;;;;;;;;;20.33;19.00;;;;;;;;5047533;27;113789;-69
2021/03/10 05:20:08;;;;;;;;;17.33;15.00;;;;;;;;5047940;27;114057;-69
2021/03/10 05:22:35;;;;;;;;;16.00;14.00;;;;;;;;5049326;27;113572;-70
2021/03/10 05:25:01;;;;;;;;;16.33;14.00;;;;;;;;5050326;27;113625;-70
2021/03/10 05:27:30;;;;;;;;;15.33;15.00;;;;;;;;5044299;27;114370;-69
2021/03/10 05:29:56;;;;;;;;;14.67;14.00;;;;;;;;5045902;27;111968;-70
2021/03/10 05:32:22;;;;;;;;;18.67;16.33;;;;;;;;5051254;27;113424;-70
2021/03/10 05:34:48;;;;;;;;;20.33;16.00;;;;;;;;5045941;27;111837;-70
2021/03/10 05:37:15;;;;;;;;;17.67;16.33;;;;;;;;5046794;27;113729;-70
2021/03/10 05:39:41;;;;;;;;;16.33;15.00;;;;;;;;5048520;27;114294;-70
2021/03/10 05:42:07;;;;;;;;;26.00;21.00;;;;;;;;5047563;27;111803;-70
2021/03/10 05:44:33;;;;;;;;;16.00;15.33;;;;;;;;5045224;27;113606;-70
2021/03/10 05:46:59;;;;;;;;;23.33;22.67;;;;;;;;5052259;27;113594;-70
2021/03/10 05:49:25;;;;;;;;;22.00;21.33;;;;;;;;5045014;27;111942;-70
2021/03/10 05:51:52;;;;;;;;;22.33;20.67;;;;;;;;5048466;27;112729;-71
2021/03/10 05:54:21;;;;;;;;;31.33;25.67;;;;;;;;5048285;27;114061;-71
2021/03/10 05:56:47;;;;;;;;;25.33;20.33;;;;;;;;5047360;27;113687;-70
2021/03/10 05:59:13;;;;;;;;;22.00;22.00;;;;;;;;5045388;27;115097;-70
2021/03/10 06:01:39;;;;;;;;;25.00;22.00;;;;;;;;5044640;27;112558;-70
2021/03/10 06:04:06;;;;;;;;;17.33;15.00;;;;;;;;5046060;27;114156;-70
2021/03/10 06:06:34;;;;;;;;;25.00;22.67;;;;;;;;5047397;27;114041;-68
2021/03/10 06:09:09;;;;;;;;;27.00;22.00;;;;;;;;5045211;27;111971;-69
2021/03/10 06:11:36;;;;;;;;;31.00;25.00;;;;;;;;5048067;27;114009;-68
2021/03/10 06:14:06;;;;;;;;;31.00;21.67;;;;;;;;5044439;27;114737;-68
2021/03/10 06:16:32;;;;;;;;;21.67;20.00;;;;;;;;5051483;27;112070;-69
2021/03/10 06:19:01;;;;;;;;;31.67;25.00;;;;;;;;5043335;27;114189;-69
2021/03/10 06:21:27;;;;;;;;;37.67;31.67;;;;;;;;5044312;27;112417;-69
2021/03/10 06:23:54;;;;;;;;;35.00;29.00;;;;;;;;5043305;27;113617;-69
2021/03/10 06:26:23;;;;;;;;;26.33;20.33;;;;;;;;5049103;27;114910;-69
2021/03/10 06:28:50;;;;;;;;;28.00;24.33;;;;;;;;5044288;27;112378;-68
2021/03/10 06:31:17;;;;;;;;;28.00;19.67;;;;;;;;5044908;27;113551;-68
2021/03/10 06:33:43;;;;;;;;;29.33;24.00;;;;;;;;5043416;27;114479;-69
2021/03/10 06:36:09;;;;;;;;;12.00;11.67;;;;;;;;5044062;27;111954;-69
2021/03/10 06:38:35;;;;;;;;;26.00;23.67;;;;;;;;5049114;27;113512;-68
2021/03/10 06:41:01;;;;;;;;;25.00;21.33;;;;;;;;5043937;27;111964;-68
2021/03/10 06:43:35;;;;;;;;;25.67;19.67;;;;;;;;5045791;27;113455;-68
2021/03/10 06:46:11;;;;;;;;;22.33;20.33;;;;;;;;5042808;27;114234;-67
2021/03/10 06:48:37;;;;;;;;;15.67;15.67;;;;;;;;5042136;27;112449;-68
2021/03/10 06:51:11;;;;;;;;;21.00;16.00;;;;;;;;5043671;27;113495;-67
2021/03/10 06:53:37;;;;;;;;;22.67;19.00;;;;;;;;5040519;27;113144;-68
2021/03/10 06:56:04;;;;;;;;;19.00;15.33;;;;;;;;5043234;27;112354;-70
2021/03/10 06:58:30;;;;;;;;;19.67;15.67;;;;;;;;5044018;27;113783;-68
2021/03/10 07:01:04;;;;;;;;;21.67;18.00;;;;;;;;5045772;27;112530;-66
2021/03/10 07:03:31;;;;;;;;;24.67;19.33;;;;;;;;5042194;27;113496;-68
2021/03/10 07:05:58;;;;;;;;;19.00;15.67;;;;;;;;5042008;27;113331;-69
2021/03/10 07:08:26;;;;;;;;;18.33;18.00;;;;;;;;5042340;27;112848;-71
2021/03/10 07:10:52;;;;;;;;;22.00;18.00;;;;;;;;5047428;27;113883;-69
2021/03/10 07:13:18;;;;;;;;;20.67;15.67;;;;;;;;5043438;27;114222;-70
2021/03/10 07:15:44;;;;;;;;;16.67;16.33;;;;;;;;5046419;27;111983;-68
2021/03/10 07:18:10;;;;;;;;;23.67;20.33;;;;;;;;5046221;27;113951;-69
2021/03/10 07:20:43;;;;;;;;;19.00;15.67;;;;;;;;5046155;27;114523;-68
2021/03/10 07:23:11;;;;;;;;;20.67;17.33;;;;;;;;5042372;27;114125;-68
2021/03/10 07:25:42;;;;;;;;;17.67;16.00;;;;;;;;5043749;27;114102;-68
2021/03/10 07:28:12;;;;;;;;;18.00;15.67;;;;;;;;5037963;27;113123;-67
2021/03/10 07:30:39;;;;;;;;;19.00;14.33;;;;;;;;5043957;27;113805;-69
2021/03/10 07:33:09;;;;;;;;;16.33;15.67;;;;;;;;5048463;27;114196;-68
2021/03/10 07:35:52;;;;;;;;;17.33;16.00;;;;;;;;5051134;27;113394;-67
2021/03/10 07:38:19;;;;;;;;;13.00;10.67;;;;;;;;5051987;27;113519;-68
2021/03/10 07:40:54;;;;;;;;;18.33;16.33;;;;;;;;5049217;27;114236;-70
2021/03/10 07:43:20;;;;;;;;;15.00;13.00;;;;;;;;5057259;27;112593;-69
2021/03/10 07:45:47;;;;;;;;;17.33;17.33;;;;;;;;5055309;27;114015;-71
2021/03/10 07:48:13;;;;;;;;;20.67;16.33;;;;;;;;5052867;27;113201;-71
2021/03/10 07:50:40;;;;;;;;;16.67;16.00;;;;;;;;5051495;27;114165;-72
2021/03/10 07:53:07;;;;;;;;;21.67;16.33;;;;;;;;5054923;27;114479;-75
2021/03/10 07:55:41;;;;;;;;;19.67;16.67;;;;;;;;5058443;27;112297;-74
2021/03/10 07:58:07;;;;;;;;;15.67;15.67;;;;;;;;5056011;27;113398;-79
2021/03/10 08:00:33;;;;;;;;;20.00;18.00;;;;;;;;5058477;27;115022;-75
2021/03/10 08:02:59;;;;;;;;;15.33;12.00;;;;;;;;5058523;27;112271;-77
2021/03/10 08:05:26;;;;;;;;;18.33;15.00;;;;;;;;5057691;27;113292;-77
2021/03/10 08:08:05;;;;;;;;;17.00;16.67;;;;;;;;5056833;27;112309;-72
2021/03/10 08:10:32;;;;;;;;;21.33;16.00;;;;;;;;5056906;27;113872;-73
2021/03/10 08:12:58;;;;;;;;;28.00;19.67;;;;;;;;5055804;27;114062;-73
2021/03/10 08:15:24;;;;;;;;;29.33;21.67;;;;;;;;5057645;27;112380;-77
2021/03/10 08:18:01;;;;;;;;;25.00;21.00;;;;;;;;5055984;27;113874;-75
2021/03/10 08:20:30;;;;;;;;;23.67;22.67;;;;;;;;5072520;27;116277;-72
2021/03/10 08:22:56;;;;;;;;;24.25;23.75;;;;;;;;5071972;27;112202;-72
2021/03/10 08:25:22;;;;;;;;;22.00;20.00;;;;;;;;5057647;27;112949;-72
2021/03/10 08:27:49;;;;;;;;;23.75;20.50;;;;;;;;5060760;27;114190;-72
2021/03/10 08:30:15;;;;;;;;;17.50;17.50;;;;;;;;5056808;27;114066;-73
2021/03/10 08:32:41;;;;;;;;;24.00;22.00;;;;;;;;5056235;27;113988;-72
2021/03/10 08:35:08;;;;;;;;;18.75;17.75;;;;;;;;5056604;27;111942;-72
2021/03/10 08:37:34;;;;;;;;;19.25;18.25;;;;;;;;5047426;27;113534;-74
2021/03/10 08:40:00;;;;;;;;;17.50;16.25;;;;;;;;5055329;27;114843;-72
2021/03/10 08:42:26;;;;;;;;;18.75;18.00;;;;;;;;5056118;27;112055;-72
2021/03/10 08:44:53;;;;;;;;;20.75;20.00;;;;;;;;5054853;27;113671;-72
2021/03/10 08:47:20;;;;;;;;;19.00;17.50;;;;;;;;5048977;27;114605;-72
2021/03/10 08:49:50;;;;;;;;;16.75;16.25;;;;;;;;5060134;27;111994;-74
2021/03/10 08:52:16;;;;;;;;;15.50;14.75;;;;;;;;5047742;27;114201;-71
2021/03/10 08:54:46;;;;;;;;;19.50;17.00;;;;;;;;5056400;27;112224;-71
2021/03/10 08:57:12;;;;;;;;;18.75;17.75;;;;;;;;5053933;27;113528;-72
2021/03/10 08:59:38;;;;;;;;;16.00;15.25;;;;;;;;5055681;27;114105;-71
2021/03/10 09:02:05;;;;;;;;;13.00;13.00;;;;;;;;5056139;27;111981;-72
2021/03/10 09:04:31;;;;;;;;;17.75;15.00;;;;;;;;5055429;27;113764;-71
2021/03/10 09:06:58;;;;;;;;;15.50;14.50;;;;;;;;5055453;27;114012;-72
2021/03/10 09:09:24;;;;;;;;;16.50;13.00;;;;;;;;5059683;27;112751;-73
2021/03/10 09:11:51;;;;;;;;;18.50;15.25;;;;;;;;5054997;27;114234;-73
2021/03/10 09:14:17;;;;;;;;;14.50;13.50;;;;;;;;5055756;27;111808;-72
2021/03/10 09:16:50;;;;;;;;;17.00;15.00;;;;;;;;5055770;27;114167;-72
2021/03/10 09:19:27;;;;;;;;;16.75;14.50;;;;;;;;5054785;27;113792;-73
2021/03/10 09:22:04;;;;;;;;;14.00;13.67;;;;;;;;5055588;27;112442;-71
2021/03/10 09:24:30;;;;;;;;;12.67;12.00;;;;;;;;5055152;27;114530;-71
2021/03/10 09:26:56;;;;;;;;;14.00;13.00;;;;;;;;5054595;27;114009;-72
2021/03/10 09:29:22;;;;;;;;;14.67;14.67;;;;;;;;5055347;27;111987;-73
2021/03/10 09:31:52;;;;;;;;;17.33;13.00;;;;;;;;5049501;27;113870;-72
2021/03/10 09:34:19;;;;;;;;;14.33;14.33;;;;;;;;5047534;27;112410;-74
2021/03/10 09:36:46;;;;;;;;;10.00;9.00;;;;;;;;5046227;27;114047;-72
2021/03/10 09:39:14;;;;;;;;;12.00;12.00;;;;;;;;5045938;27;112990;-71
2021/03/10 09:41:47;;;;;;;;;13.33;10.67;;;;;;;;5052872;27;112163;-72
2021/03/10 09:44:15;;;;;;;;;11.67;10.33;;;;;;;;5046621;27;114642;-73
2021/03/10 09:46:42;;;;;;;;;12.33;11.33;;;;;;;;5045127;27;117310;-74
2021/03/10 09:49:08;;;;;;;;;14.00;11.00;;;;;;;;5047882;27;112204;-72
2021/03/10 09:51:44;;;;;;;;;11.67;11.67;;;;;;;;5045808;27;113131;-73
2021/03/10 09:54:10;;;;;;;;;15.33;14.00;;;;;;;;5048910;27;114177;-73
2021/03/10 09:56:36;;;;;;;;;11.33;11.00;;;;;;;;5046998;27;114460;-73
2021/03/10 09:59:03;;;;;;;;;10.00;9.67;;;;;;;;5044979;27;114285;-72
2021/03/10 10:01:30;;;;;;;;;13.00;10.33;;;;;;;;5048507;27;111920;-74
2021/03/10 10:03:57;;;;;;;;;12.00;11.33;;;;;;;;5044502;27;113550;-74
2021/03/10 10:06:23;;;;;;;;;13.00;10.00;;;;;;;;5047064;27;114449;-75
2021/03/10 10:08:50;;;;;;;;;13.00;10.67;;;;;;;;5045710;27;112914;-72
2021/03/10 10:11:17;;;;;;;;;9.00;9.00;;;;;;;;5049520;27;113529;-73
2021/03/10 10:13:44;;;;;;;;;10.00;10.00;;;;;;;;5047384;27;114127;-71
2021/03/10 10:16:10;;;;;;;;;11.00;10.00;;;;;;;;5053444;27;113912;-71
2021/03/10 10:18:36;;;;;;;;;13.67;13.67;;;;;;;;5044234;27;114044;-72
2021/03/10 10:21:03;;;;;;;;;14.33;12.33;;;;;;;;5048037;27;111840;-71
2021/03/10 10:23:29;;;;;;;;;13.67;12.67;;;;;;;;5044326;27;113645;-71
2021/03/10 10:25:56;;;;;;;;;12.00;11.00;;;;;;;;5043249;27;114263;-70
2021/03/10 10:28:22;;;;;;;;;10.67;10.67;;;;;;;;5047632;27;112349;-71
2021/03/10 10:30:48;;;;;;;;;9.00;9.00;;;;;;;;5045824;27;113542;-71
2021/03/10 10:33:14;;;;;;;;;13.67;9.67;;;;;;;;5049804;27;114269;-68
2021/03/10 10:35:40;;;;;;;;;14.00;12.00;;;;;;;;5045475;27;112187;-69
2021/03/10 10:38:07;;;;;;;;;11.67;11.67;;;;;;;;5045867;27;113878;-68
2021/03/10 10:40:36;;;;;;;;;10.67;10.67;;;;;;;;5045928;27;112339;-68
2021/03/10 10:43:03;;;;;;;;;12.00;10.33;;;;;;;;5043403;27;113450;-70
2021/03/10 10:45:29;;;;;;;;;12.25;11.25;;;;;;;;5045496;27;114217;-71
2021/03/10 10:47:55;;;;;;;;;10.00;10.00;;;;;;;;5046184;27;112015;-74
2021/03/10 10:50:21;;;;;;;;;11.00;11.00;;;;;;;;5042780;27;113680;-78
2021/03/10 10:52:48;;;;;;;;;5.33;5.33;;;;;;;;5045627;27;114203;-74
2021/03/10 10:55:17;;;;;;;;;14.67;10.33;;;;;;;;5046491;27;112216;-72
2021/03/10 10:57:43;;;;;;;;;11.67;10.67;;;;;;;;5053429;27;113702;-72
2021/03/10 11:00:11;;;;;;;;;11.33;11.33;;;;;;;;5051318;27;114133;-71
2021/03/10 11:02:37;;;;;;;;;11.33;11.33;;;;;;;;5044608;27;112875;-70
2021/03/10 11:05:03;;;;;;;;;11.00;10.00;;;;;;;;5051470;27;114351;-71
2021/03/10 11:07:29;;;;;;;;;12.67;12.67;;;;;;;;5056287;27;113191;-70
2021/03/10 11:09:55;;;;;;;;;11.00;10.00;;;;;;;;5057093;27;113435;-70
2021/03/10 11:12:21;;;;;;;;;11.00;11.00;;;;;;;;5052966;27;114461;-72
2021/03/10 11:14:47;;;;;;;;;13.75;11.50;;;;;;;;5058096;27;112128;-71
2021/03/10 11:17:14;;;;;;;;;9.50;9.00;;;;;;;;5057068;27;113465;-70
2021/03/10 11:19:40;;;;;;;;;10.00;10.00;;;;;;;;5061270;27;113429;-72
2021/03/10 11:22:07;;;;;;;;;12.00;11.25;;;;;;;;5057107;27;113534;-72
2021/03/10 11:24:35;;;;;;;;;12.50;11.00;;;;;;;;5056397;27;114655;-71
2021/03/10 11:27:01;;;;;;;;;11.75;10.00;;;;;;;;5049004;27;113406;-74
2021/03/10 11:29:27;;;;;;;;;13.75;12.25;;;;;;;;5046668;27;113565;-75
2021/03/10 11:31:53;;;;;;;;;16.00;12.00;;;;;;;;5047189;27;114270;-72
2021/03/10 11:34:20;;;;;;;;;13.50;12.00;;;;;;;;5048427;27;112312;-73
2021/03/10 11:36:47;;;;;;;;;10.75;10.00;;;;;;;;5050872;27;112031;-76
2021/03/10 11:39:13;;;;;;;;;11.00;10.00;;;;;;;;5048841;27;114287;-73
2021/03/10 11:41:39;;;;;;;;;11.50;9.25;;;;;;;;5058067;27;112036;-75
2021/03/10 11:44:06;;;;;;;;;14.00;13.00;;;;;;;;5046141;27;114863;-76
2021/03/10 11:46:32;;;;;;;;;11.50;11.00;;;;;;;;5047966;27;112434;-75
2021/03/10 11:48:58;;;;;;;;;11.25;10.00;;;;;;;;5052257;27;114204;-76
2021/03/10 11:51:25;;;;;;;;;9.25;9.00;;;;;;;;5045773;27;115841;-76
2021/03/10 11:53:51;;;;;;;;;13.00;12.00;;;;;;;;5046810;27;112135;-75
2021/03/10 11:56:18;;;;;;;;;8.50;8.00;;;;;;;;5048034;27;112995;-74
2021/03/10 11:58:44;;;;;;;;;10.50;10.50;;;;;;;;5045511;27;114645;-73
2021/03/10 12:01:10;;;;;;;;;11.00;10.00;;;;;;;;5044206;27;113037;-72
2021/03/10 12:03:37;;;;;;;;;10.75;10.75;;;;;;;;5044049;27;113906;-73
2021/03/10 12:06:03;;;;;;;;;11.00;10.25;;;;;;;;5047422;27;111892;-73
2021/03/10 12:08:31;;;;;;;;;10.50;9.00;;;;;;;;5049286;27;114252;-73
2021/03/10 12:10:56;;;;;;;;;8.25;7.50;;;;;;;;5048429;27;114942;-74
2021/03/10 12:13:25;;;;;;;;;8.50;8.50;;;;;;;;5047904;27;111985;-74
2021/03/10 12:15:51;;;;;;;;;11.75;9.00;;;;;;;;5047101;27;113556;-74
2021/03/10 12:18:17;;;;;;;;;15.50;13.25;;;;;;;;5045504;27;114161;-76
2021/03/10 12:20:43;;;;;;;;;11.50;11.50;;;;;;;;5048730;27;112185;-74
2021/03/10 12:23:09;;;;;;;;;12.00;10.50;;;;;;;;5047157;27;113591;-76
2021/03/10 12:25:36;;;;;;;;;13.00;11.75;;;;;;;;5049807;27;113959;-72
2021/03/10 12:28:02;;;;;;;;;7.00;6.75;;;;;;;;5046965;27;113714;-69
2021/03/10 12:30:29;;;;;;;;;10.00;10.00;;;;;;;;5053233;27;113998;-69
2021/03/10 12:32:55;;;;;;;;;13.50;11.00;;;;;;;;5046177;27;112133;-71
2021/03/10 12:35:21;;;;;;;;;13.00;7.50;;;;;;;;5047463;27;113938;-72
2021/03/10 12:37:47;;;;;;;;;9.75;9.75;;;;;;;;5045478;27;114077;-69
2021/03/10 12:40:13;;;;;;;;;11.75;10.00;;;;;;;;5054127;27;112653;-70
2021/03/10 12:42:40;;;;;;;;;8.50;8.25;;;;;;;;5046156;27;113594;-70
2021/03/10 12:45:07;;;;;;;;;8.25;8.25;;;;;;;;5047579;27;113344;-71
2021/03/10 12:47:34;;;;;;;;;10.75;9.75;;;;;;;;5050323;27;112176;-69
2021/03/10 12:50:00;;;;;;;;;10.25;10.25;;;;;;;;5049232;27;114024;-70
2021/03/10 12:52:26;;;;;;;;;11.00;10.00;;;;;;;;5046112;27;112338;-71
2021/03/10 12:54:52;;;;;;;;;9.25;9.00;;;;;;;;5049010;27;113348;-70
2021/03/10 12:57:18;;;;;;;;;11.50;10.00;;;;;;;;5048032;27;114120;-69
2021/03/10 12:59:45;;;;;;;;;10.00;10.00;;;;;;;;5040595;27;112000;-71
2021/03/10 13:02:14;;;;;;;;;9.00;8.25;;;;;;;;5047318;27;113949;-71
2021/03/10 13:04:40;;;;;;;;;15.25;11.25;;;;;;;;5048723;27;114007;-71
2021/03/10 13:07:06;;;;;;;;;10.75;10.00;;;;;;;;5046260;27;112945;-69
2021/03/10 13:09:32;;;;;;;;;7.75;7.75;;;;;;;;5051038;27;113615;-70
2021/03/10 13:11:58;;;;;;;;;14.50;10.25;;;;;;;;5043577;27;112514;-72
2021/03/10 13:14:24;;;;;;;;;10.25;9.50;;;;;;;;5047843;27;113430;-72
2021/03/10 13:16:51;;;;;;;;;8.00;8.00;;;;;;;;5044591;27;114980;-72
2021/03/10 13:19:17;;;;;;;;;10.25;9.00;;;;;;;;5045884;27;112920;-73
2021/03/10 13:21:43;;;;;;;;;10.25;9.25;;;;;;;;5040737;27;112792;-74
2021/03/10 13:24:09;;;;;;;;;10.00;10.00;;;;;;;;5044548;27;114062;-72
2021/03/10 13:26:35;;;;;;;;;10.00;8.75;;;;;;;;5046855;27;111970;-73
2021/03/10 13:29:01;;;;;;;;;12.75;9.00;;;;;;;;5046947;27;113373;-72
2021/03/10 13:31:27;;;;;;;;;9.50;9.50;;;;;;;;5047642;27;111984;-72
2021/03/10 13:33:54;;;;;;;;;8.50;8.50;;;;;;;;5043382;27;113856;-72
2021/03/10 13:36:21;;;;;;;;;11.75;10.25;;;;;;;;5046079;27;114299;-73
2021/03/10 13:38:47;;;;;;;;;8.75;8.75;;;;;;;;5044670;27;112957;-74
2021/03/10 13:41:13;;;;;;;;;8.75;8.00;;;;;;;;5045379;27;113430;-72
2021/03/10 13:43:39;;;;;;;;;5.75;4.50;;;;;;;;5044633;27;114081;-73
2021/03/10 13:46:05;;;;;;;;;8.00;8.00;;;;;;;;5044573;27;111983;-74
2021/03/10 13:48:31;;;;;;;;;7.25;6.50;;;;;;;;5046575;27;113471;-70
2021/03/10 13:50:58;;;;;;;;;11.00;7.75;;;;;;;;5043452;27;112849;-72
2021/03/10 13:53:24;;;;;;;;;8.00;8.00;;;;;;;;5043173;27;113874;-71
2021/03/10 13:55:50;;;;;;;;;7.50;7.50;;;;;;;;5046950;27;114256;-72
2021/03/10 13:58:16;;;;;;;;;7.00;6.00;;;;;;;;5044197;27;112365;-71
2021/03/10 14:00:42;;;;;;;;;7.50;7.50;;;;;;;;5045402;27;113645;-70
2021/03/10 14:03:08;;;;;;;;;7.50;7.00;;;;;;;;5043777;27;114014;-71
2021/03/10 14:05:34;;;;;;;;;10.75;10.50;;;;;;;;5044634;27;112058;-71
2021/03/10 14:08:01;;;;;;;;;6.50;6.50;;;;;;;;5047204;27;114005;-72